VRGK1: Verdigris River on 180th Road W of Virgil KS

Data processed at Wed May 22 2019 23:50


All information presented herein is the property of the government of the United States of America and may be revised or deleted at any time without prior notice.
Dissemination of this information without the expressed written consent of the Public Affairs Office, Tulsa District U.S. Army Corps of Engineers is strictly prohibited.
These data are gathered electronically and, as presented, have not undergone any form of quality control. These data are not guaranteed to be valid or correct.
Go to home page.
Go to station list.
Go to home page.

Downstream station:


Previous Day
Next Day
Current Day
    
SHEF ID:       VRGK1     VERDIGRIS R NR VIRGIL, KS
STATION TYPE:  

               PRECIP     STAGE  RIV-FLOW  BAT-LOAD
                   in        ft       cfs      volt
              Ccp-Rev   Ccp-Rev   Ccp-Rev   Ccp-Rev
(US/Central)
05/22 00:00      0.00     28.74     10782     12.65
05/22 01:00      0.00     28.09     10347     12.65
05/22 02:00      0.00     27.17      9739     12.65
05/22 03:00      0.00     26.04      9006     12.65
05/22 04:00      0.00     24.80      8218     12.65
05/22 05:00      0.00     23.45      7383     12.65
05/22 06:00      0.00     22.12      6583     12.57
05/22 07:00      0.00     20.75      5785     12.57
05/22 08:00      0.00     19.81      5253     12.65
05/22 09:00      0.00     19.11      4866     13.21
05/22 10:00      0.00     18.55      4562     13.44
05/22 11:00      0.00     18.15      4348     13.37
05/22 12:00      0.00     17.82      4174     13.29
05/22 13:00      0.00     17.58      4048     13.29
05/22 14:00      0.00     17.38      3944     13.29
05/22 15:00      0.00     17.29      3897     13.29
05/22 16:00      0.00     17.17      3835     13.29
05/22 17:00      0.38     17.15      3825     13.21
05/22 18:00      0.01     17.12      3810     13.37
05/22 19:00      0.00     17.12      3810     13.37
05/22 20:00      0.00     17.05      3774     13.29
05/22 21:00      0.00     16.96      3728     13.21
05/22 22:00      0.00     16.87      3682     12.73
05/22 23:00      0.00     16.82      3656     12.65